createdAt,value
2019-02-27T00:00:01.759Z,8.30
2019-02-27T00:02:30.989Z,8.60
2019-02-27T00:05:00.611Z,8.97
2019-02-27T00:07:29.965Z,8.73
2019-02-27T00:09:59.303Z,8.63
2019-02-27T00:12:28.717Z,7.20
2019-02-27T00:14:58.050Z,7.77
2019-02-27T00:17:27.099Z,7.57
2019-02-27T00:19:56.429Z,7.37
2019-02-27T00:22:25.705Z,6.33
2019-02-27T00:24:54.760Z,6.80
2019-02-27T00:27:26.188Z,6.60
2019-02-27T00:29:59.450Z,5.83
2019-02-27T00:32:28.986Z,7.23
2019-02-27T00:34:58.589Z,5.70
2019-02-27T00:37:27.839Z,5.50
2019-02-27T00:39:58.466Z,6.03
2019-02-27T00:42:33.466Z,5.33
2019-02-27T00:44:59.181Z,5.63
2019-02-27T00:47:29.698Z,5.90
2019-02-27T00:49:58.715Z,6.23
2019-02-27T00:52:28.328Z,5.97
2019-02-27T00:54:57.404Z,6.10
2019-02-27T00:57:27.246Z,5.77
2019-02-27T00:59:56.667Z,5.77
2019-02-27T01:02:25.950Z,5.13
2019-02-27T01:04:56.103Z,5.73
2019-02-27T01:07:25.998Z,5.33
2019-02-27T01:09:55.451Z,5.03
2019-02-27T01:12:25.270Z,5.43
2019-02-27T01:14:56.283Z,5.27
2019-02-27T01:17:25.851Z,5.37
2019-02-27T01:19:54.905Z,6.83
2019-02-27T01:22:23.955Z,5.90
2019-02-27T01:24:52.997Z,6.73
2019-02-27T01:27:22.535Z,6.00
2019-02-27T01:29:51.804Z,6.37
2019-02-27T01:32:23.967Z,5.23
2019-02-27T01:34:53.071Z,5.77
2019-02-27T01:37:22.167Z,5.00
2019-02-27T01:39:53.546Z,4.80
2019-02-27T01:42:22.904Z,5.27
2019-02-27T01:44:52.302Z,4.67
2019-02-27T01:47:22.791Z,4.20
2019-02-27T01:49:52.245Z,4.90
2019-02-27T01:52:21.501Z,5.53
2019-02-27T01:54:52.931Z,6.33
2019-02-27T01:57:23.013Z,6.13
2019-02-27T01:59:52.696Z,5.40
2019-02-27T02:02:21.748Z,6.23
2019-02-27T02:04:53.141Z,6.30
2019-02-27T02:07:25.367Z,6.30
2019-02-27T02:09:58.842Z,6.27
2019-02-27T02:12:30.509Z,6.60
2019-02-27T02:15:51.194Z,7.37
2019-02-27T02:18:55.203Z,6.40
2019-02-27T02:21:57.222Z,6.93
2019-02-27T02:24:54.204Z,6.47
2019-02-27T02:27:57.191Z,6.03
2019-02-27T02:31:05.362Z,7.03
2019-02-27T02:34:05.445Z,7.37
2019-02-27T02:37:12.086Z,6.63
2019-02-27T02:40:06.695Z,5.17
2019-02-27T02:43:09.121Z,5.87
2019-02-27T02:45:58.135Z,6.67
2019-02-27T02:48:52.711Z,5.57
2019-02-27T02:51:52.835Z,6.40
2019-02-27T02:55:03.849Z,5.70
2019-02-27T02:58:11.344Z,4.93
2019-02-27T03:01:22.458Z,6.70
2019-02-27T03:04:25.791Z,6.10
2019-02-27T03:07:34.757Z,6.97
2019-02-27T03:10:16.534Z,5.43
2019-02-27T03:13:41.832Z,5.77
2019-02-27T03:16:32.584Z,6.77
2019-02-27T03:19:30.682Z,6.57
2019-02-27T03:22:32.125Z,6.17
2019-02-27T03:25:20.264Z,5.83
2019-02-27T03:28:40.989Z,5.83
2019-02-27T03:31:33.728Z,7.40
2019-02-27T03:34:52.930Z,6.97
2019-02-27T03:37:53.119Z,6.43
2019-02-27T03:41:02.391Z,6.73
2019-02-27T03:44:05.354Z,6.63
2019-02-27T03:47:27.939Z,6.50
2019-02-27T03:50:15.757Z,7.53
2019-02-27T03:53:20.152Z,7.23
2019-02-27T03:56:24.377Z,6.40
2019-02-27T03:59:34.301Z,7.03
2019-02-27T04:02:48.113Z,6.90
2019-02-27T04:06:04.223Z,5.57
2019-02-27T04:08:57.530Z,6.67
2019-02-27T04:11:27.243Z,6.50
2019-02-27T04:14:03.310Z,6.43
2019-02-27T04:16:30.498Z,6.37
2019-02-27T04:19:04.963Z,7.47
2019-02-27T04:21:35.317Z,6.63
2019-02-27T04:24:04.354Z,6.27
2019-02-27T04:26:34.875Z,7.17
2019-02-27T04:29:04.482Z,6.50
2019-02-27T04:31:34.983Z,6.73
2019-02-27T04:34:04.007Z,6.07
2019-02-27T04:36:34.403Z,7.03
2019-02-27T04:39:04.311Z,6.00
2019-02-27T04:41:34.715Z,6.53
2019-02-27T04:44:06.021Z,6.20
2019-02-27T04:46:38.708Z,5.27
2019-02-27T04:49:07.774Z,6.20
2019-02-27T04:51:37.187Z,5.17
2019-02-27T04:54:07.444Z,6.53
2019-02-27T04:56:36.628Z,5.83
2019-02-27T04:59:05.647Z,5.97
2019-02-27T05:01:36.690Z,6.50
2019-02-27T05:04:06.333Z,6.07
2019-02-27T05:06:35.372Z,6.97
2019-02-27T05:09:05.682Z,6.17
2019-02-27T05:11:38.360Z,5.90
2019-02-27T05:14:07.676Z,7.40
2019-02-27T05:16:38.652Z,7.03
2019-02-27T05:19:09.120Z,6.30
2019-02-27T05:21:38.324Z,6.57
2019-02-27T05:24:07.714Z,6.13
2019-02-27T05:26:42.226Z,7.77
2019-02-27T05:29:12.286Z,6.67
2019-02-27T05:31:41.325Z,7.00
2019-02-27T05:34:13.555Z,6.97
2019-02-27T05:36:42.195Z,6.90
2019-02-27T05:39:14.984Z,7.30
2019-02-27T05:41:49.106Z,7.37
2019-02-27T05:44:21.349Z,7.40
2019-02-27T05:46:50.937Z,7.33
2019-02-27T05:49:20.229Z,7.57
2019-02-27T05:51:50.223Z,6.80
2019-02-27T05:54:21.374Z,7.43
2019-02-27T05:56:51.166Z,6.27
2019-02-27T05:59:20.128Z,6.27
2019-02-27T06:01:50.735Z,8.37
2019-02-27T06:04:20.090Z,7.83
2019-02-27T06:06:49.121Z,8.50
2019-02-27T06:09:18.498Z,6.87
2019-02-27T06:11:47.906Z,7.47
2019-02-27T06:14:21.154Z,6.20
2019-02-27T06:16:50.943Z,6.67
2019-02-27T06:19:20.497Z,6.47
2019-02-27T06:21:49.901Z,7.47
2019-02-27T06:24:19.247Z,7.60
2019-02-27T06:26:49.564Z,7.07
2019-02-27T06:29:23.984Z,6.37
2019-02-27T06:31:52.846Z,7.93
2019-02-27T06:34:22.310Z,6.07
2019-02-27T06:36:53.252Z,6.43
2019-02-27T06:39:23.188Z,7.53
2019-02-27T06:41:52.407Z,7.30
2019-02-27T06:44:25.303Z,8.43
2019-02-27T06:46:55.091Z,7.67
2019-02-27T06:49:24.182Z,7.97
2019-02-27T06:51:53.544Z,8.43
2019-02-27T06:54:24.776Z,8.40
2019-02-27T06:56:55.250Z,7.63
2019-02-27T06:59:27.506Z,7.83
2019-02-27T07:02:00.720Z,7.97
2019-02-27T07:04:29.868Z,7.40
2019-02-27T07:07:01.414Z,6.77
2019-02-27T07:09:30.712Z,7.43
2019-02-27T07:12:00.967Z,7.93
2019-02-27T07:14:30.026Z,7.57
2019-02-27T07:16:59.446Z,8.20
2019-02-27T07:19:28.856Z,7.93
2019-02-27T07:21:58.704Z,7.13
2019-02-27T07:24:33.613Z,8.03
2019-02-27T07:27:01.811Z,6.87
2019-02-27T07:29:30.861Z,7.53
2019-02-27T07:32:00.713Z,7.53
2019-02-27T07:34:29.774Z,6.73
2019-02-27T07:36:59.335Z,8.27
2019-02-27T07:39:32.588Z,6.93
2019-02-27T07:42:04.413Z,6.93
2019-02-27T07:44:35.835Z,7.70
2019-02-27T07:47:04.966Z,6.30
2019-02-27T07:49:36.847Z,6.80
2019-02-27T07:52:05.891Z,6.80
2019-02-27T07:54:35.171Z,7.93
2019-02-27T07:57:09.160Z,6.43
2019-02-27T07:59:38.794Z,8.10
2019-02-27T08:02:08.852Z,7.43
2019-02-27T08:04:37.946Z,6.73
2019-02-27T08:07:10.082Z,6.30
2019-02-27T08:09:38.850Z,7.50
2019-02-27T08:12:08.554Z,6.97
2019-02-27T08:14:38.256Z,6.03
2019-02-27T08:17:17.239Z,6.43
2019-02-27T08:19:38.092Z,6.60
2019-02-27T08:22:10.138Z,5.93
2019-02-27T08:24:39.637Z,6.13
2019-02-27T08:27:09.694Z,6.50
2019-02-27T08:29:39.667Z,5.60
2019-02-27T08:32:08.970Z,6.60
2019-02-27T08:34:38.711Z,6.10
2019-02-27T08:37:07.759Z,6.83
2019-02-27T08:39:36.760Z,6.07
2019-02-27T08:42:08.209Z,6.03
2019-02-27T08:44:37.273Z,5.60
2019-02-27T08:47:10.323Z,5.93
2019-02-27T08:49:41.584Z,6.53
2019-02-27T08:52:13.076Z,5.80
2019-02-27T08:54:43.512Z,6.17
2019-02-27T08:57:12.498Z,6.57
2019-02-27T08:59:41.534Z,6.63
2019-02-27T09:02:10.733Z,6.10
2019-02-27T09:04:42.898Z,6.97
2019-02-27T09:07:12.164Z,6.47
2019-02-27T09:09:41.211Z,7.33
2019-02-27T09:12:13.422Z,7.37
2019-02-27T09:14:50.662Z,6.93
2019-02-27T09:17:21.137Z,5.97
2019-02-27T09:19:50.210Z,6.50
2019-02-27T09:22:19.350Z,6.53
2019-02-27T09:24:49.838Z,6.07
2019-02-27T09:27:19.450Z,5.97
2019-02-27T09:29:52.322Z,6.00
2019-02-27T09:32:23.956Z,5.67
2019-02-27T09:34:53.320Z,6.37
2019-02-27T09:37:25.941Z,7.97
2019-02-27T09:39:57.795Z,6.87
2019-02-27T09:42:26.894Z,6.27
2019-02-27T09:44:56.999Z,5.97
2019-02-27T09:47:27.371Z,6.07
2019-02-27T09:49:56.694Z,7.63
2019-02-27T09:52:27.847Z,6.13
2019-02-27T09:54:57.970Z,5.23
2019-02-27T09:57:27.181Z,6.17
2019-02-27T09:59:56.461Z,6.00
2019-02-27T10:02:29.825Z,6.23
2019-02-27T10:05:02.919Z,6.57
2019-02-27T10:07:32.267Z,6.17
2019-02-27T10:10:01.910Z,5.47
2019-02-27T10:12:31.298Z,5.47
2019-02-27T10:15:01.716Z,5.60
2019-02-27T10:17:32.427Z,5.53
2019-02-27T10:20:02.879Z,4.67
2019-02-27T10:22:32.133Z,4.83
2019-02-27T10:25:01.775Z,5.53
2019-02-27T10:27:32.846Z,5.10
2019-02-27T10:30:11.281Z,4.40
2019-02-27T10:32:36.608Z,5.17
2019-02-27T10:35:07.140Z,5.23
2019-02-27T10:37:36.413Z,4.97
2019-02-27T10:40:08.757Z,5.33
2019-02-27T10:42:37.778Z,5.83
2019-02-27T10:45:10.725Z,5.10
2019-02-27T10:47:41.159Z,5.20
2019-02-27T10:50:12.581Z,5.43
2019-02-27T10:52:42.307Z,5.33
2019-02-27T10:55:14.165Z,5.60
2019-02-27T10:57:45.566Z,5.33
2019-02-27T11:00:24.869Z,5.57
2019-02-27T11:02:52.691Z,6.13
2019-02-27T11:05:22.003Z,6.00
2019-02-27T11:07:55.043Z,6.70
2019-02-27T11:10:25.182Z,6.67
2019-02-27T11:12:54.513Z,6.33
2019-02-27T11:15:24.752Z,6.50
2019-02-27T11:17:53.814Z,6.83
2019-02-27T11:20:24.666Z,6.00
2019-02-27T11:22:56.378Z,6.50
2019-02-27T11:25:25.897Z,6.30
2019-02-27T11:27:55.287Z,6.20
2019-02-27T11:30:27.558Z,6.13
2019-02-27T11:33:25.208Z,5.40
2019-02-27T11:35:57.407Z,6.10
2019-02-27T11:38:27.561Z,5.70
2019-02-27T11:40:56.768Z,6.67
2019-02-27T11:43:26.571Z,6.93
2019-02-27T11:45:58.010Z,6.30
2019-02-27T11:48:40.638Z,5.63
2019-02-27T11:51:14.030Z,5.37
2019-02-27T11:53:43.398Z,5.67
2019-02-27T11:56:13.122Z,6.47
2019-02-27T11:58:45.401Z,6.57
2019-02-27T12:01:16.090Z,6.57
2019-02-27T12:03:48.971Z,5.50
2019-02-27T12:06:18.363Z,6.70
2019-02-27T12:08:48.249Z,7.13
2019-02-27T12:11:17.751Z,6.83
2019-02-27T12:13:48.818Z,5.47
2019-02-27T12:16:18.502Z,6.03
2019-02-27T12:18:48.978Z,6.03
2019-02-27T12:21:18.726Z,6.50
2019-02-27T12:23:48.163Z,5.67
2019-02-27T12:26:17.531Z,6.70
2019-02-27T12:28:47.565Z,6.03
2019-02-27T12:31:16.906Z,6.27
2019-02-27T12:33:46.469Z,6.43
2019-02-27T12:36:18.740Z,6.60
2019-02-27T12:38:47.865Z,7.10
2019-02-27T12:41:17.055Z,6.40
2019-02-27T12:43:52.117Z,6.27
2019-02-27T12:46:20.854Z,6.37
2019-02-27T12:48:50.515Z,6.20
2019-02-27T12:51:21.076Z,6.43
2019-02-27T12:53:54.634Z,6.47
2019-02-27T12:56:24.190Z,7.67
2019-02-27T12:58:58.251Z,7.47
2019-02-27T13:01:25.488Z,6.43
2019-02-27T13:03:54.599Z,6.60
2019-02-27T13:06:29.475Z,6.83
2019-02-27T13:08:58.904Z,6.70
2019-02-27T13:11:28.001Z,6.63
2019-02-27T13:13:59.721Z,6.33
2019-02-27T13:16:28.331Z,7.17
2019-02-27T13:18:57.900Z,7.20
2019-02-27T13:21:27.107Z,6.93
2019-02-27T13:23:57.306Z,6.57
2019-02-27T13:26:28.189Z,6.37
2019-02-27T13:28:57.875Z,6.67
2019-02-27T13:31:27.368Z,8.33
2019-02-27T13:33:57.258Z,7.87
2019-02-27T13:36:28.594Z,7.40
2019-02-27T13:38:59.770Z,7.57
2019-02-27T13:41:28.767Z,7.57
2019-02-27T13:44:01.138Z,6.73
2019-02-27T13:46:29.152Z,7.03
2019-02-27T13:48:58.871Z,7.03
2019-02-27T13:51:27.936Z,8.00
2019-02-27T13:54:00.690Z,8.30
2019-02-27T13:56:31.247Z,8.20
2019-02-27T13:59:01.169Z,8.40
2019-02-27T14:01:30.276Z,8.73
2019-02-27T14:04:00.030Z,7.80
2019-02-27T14:06:29.688Z,8.03
2019-02-27T14:08:59.970Z,7.73
2019-02-27T14:11:29.024Z,7.07
2019-02-27T14:14:00.508Z,7.80
2019-02-27T14:16:34.541Z,7.47
2019-02-27T14:19:04.782Z,8.47
2019-02-27T14:21:35.656Z,7.30
2019-02-27T14:24:05.005Z,8.03
2019-02-27T14:26:34.792Z,7.47
2019-02-27T14:29:04.209Z,7.53
2019-02-27T14:31:33.339Z,6.90
2019-02-27T14:34:08.451Z,7.17
2019-02-27T14:36:39.348Z,7.67
2019-02-27T14:39:12.138Z,6.50
2019-02-27T14:41:41.194Z,6.20
2019-02-27T14:44:13.977Z,6.00
2019-02-27T14:46:45.042Z,5.63
2019-02-27T14:49:14.282Z,5.27
2019-02-27T14:51:43.281Z,5.20
2019-02-27T14:54:13.301Z,5.53
2019-02-27T14:56:42.844Z,7.57
2019-02-27T14:59:12.220Z,6.90
2019-02-27T15:01:41.571Z,7.80
2019-02-27T15:04:10.558Z,6.63
2019-02-27T15:06:40.558Z,6.73
2019-02-27T15:09:10.231Z,7.67
2019-02-27T15:11:40.060Z,7.77
2019-02-27T15:14:10.743Z,8.00
2019-02-27T15:16:40.172Z,7.40
2019-02-27T15:19:09.766Z,7.57
2019-02-27T15:21:39.722Z,7.57
2019-02-27T15:24:10.472Z,7.63
2019-02-27T15:26:45.182Z,8.13
2019-02-27T15:29:11.274Z,8.30
2019-02-27T15:31:40.334Z,8.23
2019-02-27T15:34:12.032Z,7.60
2019-02-27T15:36:40.452Z,7.30
2019-02-27T15:39:10.189Z,8.13
2019-02-27T15:41:40.430Z,7.70
2019-02-27T15:44:13.761Z,8.30
2019-02-27T15:46:43.175Z,7.83
2019-02-27T15:49:15.036Z,8.20
2019-02-27T15:51:43.926Z,8.60
2019-02-27T15:54:15.667Z,8.60
2019-02-27T15:56:45.486Z,8.80
2019-02-27T15:59:15.203Z,8.70
2019-02-27T16:01:44.247Z,7.83
2019-02-27T16:04:13.602Z,8.23
2019-02-27T16:06:43.645Z,9.07
2019-02-27T16:09:12.720Z,7.83
2019-02-27T16:11:41.754Z,8.17
2019-02-27T16:14:11.118Z,8.63
2019-02-27T16:16:40.743Z,8.77
2019-02-27T16:19:12.697Z,7.40
2019-02-27T16:21:41.743Z,10.27
2019-02-27T16:24:11.563Z,8.90
2019-02-27T16:26:40.961Z,9.57
2019-02-27T16:29:10.634Z,8.97
2019-02-27T16:31:40.884Z,8.10
2019-02-27T16:34:10.104Z,9.70
2019-02-27T16:36:39.415Z,8.50
2019-02-27T16:39:09.410Z,8.90
2019-02-27T16:41:41.542Z,9.27
2019-02-27T16:44:11.254Z,9.20
2019-02-27T16:46:44.590Z,7.77
2019-02-27T16:49:12.150Z,8.03
2019-02-27T16:51:42.288Z,7.77
2019-02-27T16:54:11.676Z,8.83
2019-02-27T16:56:46.550Z,8.17
2019-02-27T16:59:12.736Z,7.77
2019-02-27T17:01:42.796Z,6.73
2019-02-27T17:04:12.167Z,7.27
2019-02-27T17:06:41.224Z,6.80
2019-02-27T17:09:10.998Z,7.07
2019-02-27T17:11:43.666Z,5.93
2019-02-27T17:14:12.894Z,6.17
2019-02-27T17:16:44.533Z,6.77
2019-02-27T17:19:12.898Z,6.73
2019-02-27T17:21:42.954Z,5.83
2019-02-27T17:24:12.286Z,5.80
2019-02-27T17:26:41.902Z,5.03
2019-02-27T17:29:14.383Z,5.53
2019-02-27T17:31:49.255Z,5.73
2019-02-27T17:34:17.751Z,5.00
2019-02-27T17:36:47.439Z,4.97
2019-02-27T17:39:17.734Z,5.73
2019-02-27T17:41:47.033Z,5.23
2019-02-27T17:44:16.527Z,5.50
2019-02-27T17:46:45.641Z,5.43
2019-02-27T17:49:14.849Z,4.43
2019-02-27T17:51:44.531Z,5.80
2019-02-27T17:54:13.984Z,5.20
2019-02-27T17:56:44.310Z,4.90
2019-02-27T17:59:13.598Z,4.93
2019-02-27T18:01:42.722Z,4.87
2019-02-27T18:04:14.191Z,5.63
2019-02-27T18:06:43.315Z,3.90
2019-02-27T18:09:14.532Z,4.33
2019-02-27T18:11:43.521Z,4.00
2019-02-27T18:14:13.018Z,3.67
2019-02-27T18:16:44.382Z,4.07
2019-02-27T18:19:16.527Z,4.97
2019-02-27T18:21:48.398Z,4.00
2019-02-27T18:24:17.414Z,4.40
2019-02-27T18:26:50.043Z,3.60
2019-02-27T18:29:17.970Z,3.03
2019-02-27T18:31:47.315Z,3.50
2019-02-27T18:34:16.970Z,2.73
2019-02-27T18:36:47.070Z,3.50
2019-02-27T18:39:16.415Z,2.63
2019-02-27T18:41:46.839Z,2.80
2019-02-27T18:44:16.215Z,3.20
2019-02-27T18:46:45.839Z,2.33
2019-02-27T18:49:18.647Z,2.37
2019-02-27T18:51:47.124Z,2.93
2019-02-27T18:54:21.748Z,2.70
2019-02-27T18:56:49.581Z,2.00
2019-02-27T18:59:20.764Z,2.03
2019-02-27T19:01:50.043Z,2.27
2019-02-27T19:04:22.492Z,2.73
2019-02-27T19:06:52.957Z,2.20
2019-02-27T19:09:22.315Z,1.70
2019-02-27T19:11:51.679Z,2.07
2019-02-27T19:14:22.808Z,1.83
2019-02-27T19:16:55.145Z,1.97
2019-02-27T19:19:25.382Z,1.90
2019-02-27T19:21:57.375Z,1.87
2019-02-27T19:24:29.012Z,1.90
2019-02-27T19:26:59.305Z,2.20
2019-02-27T19:29:32.077Z,2.10
2019-02-27T19:32:03.128Z,1.90
2019-02-27T19:34:32.572Z,2.27
2019-02-27T19:37:04.986Z,1.90
2019-02-27T19:39:36.260Z,1.73
2019-02-27T19:42:05.662Z,1.60
2019-02-27T19:44:35.359Z,1.70
2019-02-27T19:47:04.490Z,1.90
2019-02-27T19:49:34.180Z,1.60
2019-02-27T19:52:06.040Z,1.90
2019-02-27T19:54:35.694Z,1.70
2019-02-27T19:57:08.442Z,1.70
2019-02-27T19:59:37.323Z,2.07
2019-02-27T20:02:07.184Z,2.03
2019-02-27T20:04:36.991Z,1.87
2019-02-27T20:07:07.442Z,2.30
2019-02-27T20:09:36.480Z,1.70
2019-02-27T20:12:05.507Z,2.30
